createdAt,value
2023-04-18T00:01:19.283Z,14.65
2023-04-18T00:03:47.281Z,13.30
2023-04-18T00:06:14.099Z,13.25
2023-04-18T00:08:40.568Z,16.63
2023-04-18T00:11:07.129Z,15.20
2023-04-18T00:13:33.667Z,12.32
2023-04-18T00:16:00.396Z,12.93
2023-04-18T00:18:27.889Z,11.60
2023-04-18T00:20:54.584Z,12.40
2023-04-18T00:23:22.224Z,14.57
2023-04-18T00:25:48.840Z,16.35
2023-04-18T00:28:15.318Z,13.95
2023-04-18T00:30:41.834Z,13.05
2023-04-18T00:33:08.859Z,13.15
2023-04-18T00:35:35.508Z,14.20
2023-04-18T00:38:02.018Z,14.30
2023-04-18T00:40:28.509Z,13.20
2023-04-18T00:42:55.577Z,13.73
2023-04-18T00:45:22.198Z,13.95
2023-04-18T00:47:48.701Z,12.82
2023-04-18T00:50:15.332Z,14.43
2023-04-18T00:52:42.162Z,12.10
2023-04-18T00:55:09.319Z,12.73
2023-04-18T00:57:36.412Z,12.07
2023-04-18T01:00:09.758Z,13.15
2023-04-18T01:02:37.426Z,13.90
2023-04-18T01:05:04.216Z,12.88
2023-04-18T01:07:33.254Z,13.82
2023-04-18T01:10:00.537Z,16.30
2023-04-18T01:12:27.114Z,15.65
2023-04-18T01:14:54.538Z,13.70
2023-04-18T01:17:22.504Z,12.43
2023-04-18T01:19:51.124Z,13.82
2023-04-18T01:22:17.662Z,13.80
2023-04-18T01:24:44.182Z,14.52
2023-04-18T01:27:13.417Z,17.10
2023-04-18T01:29:40.229Z,17.00
2023-04-18T01:32:07.038Z,14.75
2023-04-18T01:34:33.582Z,15.65
2023-04-18T01:37:00.176Z,14.38
2023-04-18T01:39:26.667Z,15.48
2023-04-18T01:41:53.127Z,15.10
2023-04-18T01:44:19.710Z,16.95
2023-04-18T01:46:46.193Z,13.73
2023-04-18T01:49:12.736Z,15.13
2023-04-18T01:51:39.430Z,15.00
2023-04-18T01:54:06.051Z,17.15
2023-04-18T01:56:32.567Z,14.40
2023-04-18T01:59:00.683Z,14.77
2023-04-18T02:01:27.924Z,14.15
2023-04-18T02:03:54.621Z,15.43
2023-04-18T02:06:21.495Z,14.98
2023-04-18T02:08:47.946Z,13.15
2023-04-18T02:11:14.420Z,14.20
2023-04-18T02:13:41.138Z,14.52
2023-04-18T02:16:12.748Z,13.80
2023-04-18T02:18:39.376Z,16.35
2023-04-18T02:21:06.466Z,13.65
2023-04-18T02:23:32.931Z,14.35
2023-04-18T02:25:59.451Z,14.65
2023-04-18T02:28:25.943Z,14.40
2023-04-18T02:30:52.381Z,14.60
2023-04-18T02:33:19.004Z,15.75
2023-04-18T02:35:45.559Z,15.55
2023-04-18T02:38:13.755Z,17.85
2023-04-18T02:40:40.364Z,14.35
2023-04-18T02:43:06.893Z,14.43
2023-04-18T02:45:33.481Z,12.88
2023-04-18T02:48:01.224Z,15.07
2023-04-18T02:50:29.097Z,13.35
2023-04-18T02:52:57.030Z,15.43
2023-04-18T02:55:29.250Z,14.63
2023-04-18T03:00:53.677Z,14.95
2023-04-18T03:03:40.124Z,14.50
2023-04-18T03:06:25.326Z,15.77
2023-04-18T03:08:53.280Z,16.58
2023-04-18T03:11:21.196Z,14.63
2023-04-18T03:13:47.880Z,15.38
2023-04-18T03:16:14.935Z,15.95
2023-04-18T03:18:42.529Z,14.10
2023-04-18T03:21:09.087Z,14.27
2023-04-18T03:23:36.488Z,14.23
2023-04-18T03:26:08.205Z,18.13
2023-04-18T03:28:37.365Z,14.07
2023-04-18T03:31:04.577Z,13.85
2023-04-18T03:33:33.311Z,17.33
2023-04-18T03:36:08.305Z,15.30
2023-04-18T03:38:35.010Z,15.80
2023-04-18T03:41:02.858Z,17.63
2023-04-18T03:43:33.309Z,13.75
2023-04-18T03:45:59.960Z,14.80
2023-04-18T03:48:28.821Z,13.57
2023-04-18T03:50:59.106Z,14.88
2023-04-18T03:53:25.702Z,14.65
2023-04-18T03:55:52.248Z,14.52
2023-04-18T04:00:51.774Z,14.60
2023-04-18T04:03:19.621Z,15.02
2023-04-18T04:05:46.539Z,14.02
2023-04-18T04:08:16.224Z,12.05
2023-04-18T04:10:42.756Z,13.57
2023-04-18T04:13:09.314Z,14.35
2023-04-18T04:18:07.535Z,15.30
2023-04-18T04:20:37.583Z,12.80
2023-04-18T04:23:10.455Z,14.02
2023-04-18T04:25:39.168Z,13.90
2023-04-18T04:28:14.356Z,14.13
2023-04-18T04:30:51.205Z,14.05
2023-04-18T04:33:19.474Z,14.23
2023-04-18T04:35:47.213Z,12.85
2023-04-18T04:38:15.307Z,12.85
2023-04-18T04:40:46.382Z,13.57
2023-04-18T04:43:22.655Z,14.80
2023-04-18T04:45:52.450Z,13.40
2023-04-18T04:48:24.317Z,14.10
2023-04-18T04:53:19.383Z,13.93
2023-04-18T04:55:46.182Z,16.73
2023-04-18T04:58:12.780Z,12.73
2023-04-18T05:00:57.884Z,15.00
2023-04-18T05:03:24.731Z,14.25
2023-04-18T05:05:51.900Z,15.45
2023-04-18T05:08:18.361Z,14.25
2023-04-18T05:10:45.927Z,16.92
2023-04-18T05:13:12.356Z,14.23
2023-04-18T05:15:39.559Z,14.23
2023-04-18T05:18:06.239Z,15.32
2023-04-18T05:20:32.813Z,14.13
2023-04-18T05:22:59.290Z,14.52
2023-04-18T05:25:25.951Z,16.55
2023-04-18T05:27:52.678Z,12.70
2023-04-18T05:30:19.185Z,15.00
2023-04-18T05:32:45.805Z,14.73
2023-04-18T05:35:12.412Z,15.60
2023-04-18T05:37:38.937Z,14.65
2023-04-18T05:40:06.447Z,14.85
2023-04-18T05:42:32.993Z,15.93
2023-04-18T05:44:59.439Z,13.43
2023-04-18T05:47:28.543Z,14.02
2023-04-18T05:49:55.421Z,14.13
2023-04-18T05:52:21.989Z,15.05
2023-04-18T05:54:48.475Z,16.23
2023-04-18T05:57:15.061Z,15.18
2023-04-18T05:59:41.531Z,15.32
2023-04-18T06:02:13.251Z,16.02
2023-04-18T06:04:41.810Z,14.43
2023-04-18T06:07:08.886Z,17.75
2023-04-18T06:09:35.514Z,15.52
2023-04-18T06:12:02.099Z,17.20
2023-04-18T06:14:28.802Z,17.67
2023-04-18T06:16:55.404Z,16.65
2023-04-18T06:19:22.166Z,17.33
2023-04-18T06:21:49.120Z,17.50
2023-04-18T06:24:15.931Z,17.02
2023-04-18T06:26:42.696Z,15.45
2023-04-18T06:29:09.222Z,17.60
2023-04-18T06:31:35.756Z,17.63
2023-04-18T06:34:02.260Z,18.73
2023-04-18T06:36:28.721Z,17.25
2023-04-18T06:38:55.223Z,17.95
2023-04-18T06:41:21.699Z,17.88
2023-04-18T06:44:02.166Z,18.52
2023-04-18T06:46:30.247Z,18.42
2023-04-18T06:48:56.973Z,19.40
2023-04-18T06:51:23.474Z,18.30
2023-04-18T06:53:52.743Z,17.23
2023-04-18T06:56:20.500Z,17.83
2023-04-18T06:58:47.675Z,17.08
2023-04-18T07:01:14.261Z,18.40
2023-04-18T07:03:40.999Z,20.13
2023-04-18T07:06:08.891Z,18.90
2023-04-18T07:08:35.738Z,17.42
2023-04-18T07:11:02.602Z,18.42
2023-04-18T07:13:29.287Z,17.08
2023-04-18T07:15:55.802Z,17.17
2023-04-18T07:18:30.625Z,15.40
2023-04-18T07:21:03.775Z,17.10
2023-04-18T07:23:30.294Z,17.88
2023-04-18T07:25:58.572Z,16.35
2023-04-18T07:28:26.216Z,17.55
2023-04-18T07:30:52.739Z,18.38
2023-04-18T07:33:19.267Z,18.58
2023-04-18T07:35:46.625Z,16.08
2023-04-18T07:38:13.197Z,18.20
2023-04-18T07:40:39.637Z,19.42
2023-04-18T07:43:06.160Z,18.67
2023-04-18T07:45:35.604Z,16.98
2023-04-18T07:48:02.443Z,16.67
2023-04-18T07:50:28.929Z,18.42
2023-04-18T07:52:55.647Z,16.33
2023-04-18T07:55:22.172Z,16.55
2023-04-18T07:57:50.448Z,15.85
2023-04-18T08:00:18.111Z,17.13
2023-04-18T08:02:44.913Z,15.90
2023-04-18T08:05:12.139Z,18.75
2023-04-18T08:07:38.834Z,17.98
2023-04-18T08:10:05.877Z,17.65
2023-04-18T08:12:32.339Z,16.45
2023-04-18T08:14:58.849Z,17.60
2023-04-18T08:17:25.678Z,17.00
2023-04-18T08:19:52.217Z,17.38
2023-04-18T08:22:18.772Z,18.02
2023-04-18T08:25:01.043Z,17.45
2023-04-18T08:27:31.424Z,16.58
2023-04-18T08:29:58.207Z,16.17
2023-04-18T08:32:24.833Z,17.05
2023-04-18T08:34:51.476Z,16.25
2023-04-18T08:37:18.009Z,16.08
2023-04-18T08:39:44.942Z,18.20
2023-04-18T08:42:12.813Z,16.15
2023-04-18T08:44:39.352Z,14.75
2023-04-18T08:47:08.797Z,16.25
2023-04-18T08:52:03.186Z,14.52
2023-04-18T08:54:30.509Z,15.02
2023-04-18T08:57:04.740Z,15.75
2023-04-18T08:59:32.422Z,17.38
2023-04-18T09:02:01.388Z,15.13
2023-04-18T09:04:41.069Z,16.35
2023-04-18T09:07:13.042Z,16.08
2023-04-18T09:09:50.883Z,15.95
2023-04-18T09:12:25.319Z,18.10
2023-04-18T09:15:11.696Z,18.08
2023-04-18T09:17:45.486Z,15.38
2023-04-18T09:20:13.166Z,14.32
2023-04-18T09:22:53.017Z,15.48
2023-04-18T09:25:27.301Z,15.48
2023-04-18T09:27:53.885Z,14.45
2023-04-18T09:30:40.398Z,14.10
2023-04-18T09:33:10.070Z,15.35
2023-04-18T09:35:37.870Z,15.90
2023-04-18T09:38:06.378Z,14.65
2023-04-18T09:40:33.504Z,14.60
2023-04-18T09:43:00.484Z,14.68
2023-04-18T09:45:27.155Z,14.98
2023-04-18T09:47:54.044Z,15.65
2023-04-18T09:50:20.867Z,12.05
2023-04-18T09:52:48.321Z,14.20
2023-04-18T09:55:17.255Z,16.17
2023-04-18T09:57:46.458Z,14.48
2023-04-18T10:00:20.358Z,15.15
2023-04-18T10:03:00.999Z,13.95
2023-04-18T10:05:31.147Z,16.90
2023-04-18T10:07:57.719Z,14.20
2023-04-18T10:10:24.763Z,15.40
2023-04-18T10:12:54.070Z,12.90
2023-04-18T10:18:04.165Z,14.00
2023-04-18T10:20:32.973Z,14.38
2023-04-18T10:22:59.900Z,16.02
2023-04-18T10:25:38.523Z,14.20
2023-04-18T10:28:09.103Z,13.95
2023-04-18T10:30:41.725Z,15.15
2023-04-18T10:33:33.589Z,13.60
2023-04-18T10:36:09.644Z,14.23
2023-04-18T10:38:38.696Z,12.63
2023-04-18T10:41:28.760Z,14.63
2023-04-18T10:44:18.218Z,13.68
2023-04-18T10:46:47.992Z,14.85
2023-04-18T10:49:18.572Z,13.07
2023-04-18T10:51:49.617Z,11.95
2023-04-18T10:54:28.432Z,12.57
2023-04-18T10:56:57.038Z,12.38
2023-04-18T10:59:25.159Z,12.73
2023-04-18T11:01:57.233Z,12.05
2023-04-18T11:04:24.931Z,11.13
2023-04-18T11:06:55.993Z,13.07
2023-04-18T11:09:22.940Z,12.07
2023-04-18T11:12:10.670Z,11.65
2023-04-18T11:14:51.107Z,13.38
2023-04-18T11:17:17.998Z,13.05
2023-04-18T11:19:44.531Z,12.18
2023-04-18T11:22:11.976Z,12.38
2023-04-18T11:24:38.857Z,13.23
2023-04-18T11:27:05.514Z,13.52
2023-04-18T11:29:32.424Z,12.50
2023-04-18T11:31:59.021Z,12.55
2023-04-18T11:34:32.470Z,11.75
2023-04-18T11:36:59.383Z,11.73
2023-04-18T11:39:25.957Z,13.75
2023-04-18T11:41:52.556Z,12.15
2023-04-18T11:44:26.209Z,11.23
2023-04-18T11:46:53.491Z,11.88
2023-04-18T11:49:26.188Z,12.32
2023-04-18T11:51:53.565Z,12.93
2023-04-18T11:54:39.565Z,10.23
2023-04-18T11:57:06.931Z,10.65
2023-04-18T11:59:33.569Z,10.85
2023-04-18T12:02:14.845Z,9.80
2023-04-18T12:04:59.709Z,10.13
2023-04-18T12:07:37.256Z,10.77
2023-04-18T12:10:06.040Z,10.20
2023-04-18T12:12:32.763Z,10.90
2023-04-18T12:15:10.462Z,11.07
2023-04-18T12:17:37.984Z,9.80
2023-04-18T12:20:10.722Z,10.10
2023-04-18T12:22:51.431Z,10.40
2023-04-18T12:25:27.862Z,10.45
2023-04-18T12:28:17.501Z,8.77
2023-04-18T12:30:44.053Z,9.65
2023-04-18T12:33:11.249Z,9.07
2023-04-18T12:35:37.970Z,9.02
2023-04-18T12:38:04.835Z,8.70
2023-04-18T12:40:31.427Z,8.65
2023-04-18T12:42:58.021Z,9.75
2023-04-18T12:45:24.862Z,7.88
2023-04-18T12:47:52.278Z,7.85
2023-04-18T12:50:20.926Z,7.70
2023-04-18T12:52:47.914Z,8.40
2023-04-18T12:55:17.483Z,8.07
2023-04-18T12:58:07.525Z,7.68
2023-04-18T13:00:34.411Z,7.03
2023-04-18T13:03:01.325Z,7.43
2023-04-18T13:05:32.587Z,7.30
2023-04-18T13:08:12.875Z,7.63
2023-04-18T13:10:43.537Z,7.07
2023-04-18T13:13:10.207Z,8.18
2023-04-18T13:15:39.934Z,7.28
2023-04-18T13:18:09.549Z,7.70
2023-04-18T13:20:36.605Z,6.82
2023-04-18T13:23:03.307Z,7.82
2023-04-18T13:25:29.996Z,6.85
2023-04-18T13:27:58.503Z,6.70
2023-04-18T13:30:25.507Z,7.13
2023-04-18T13:32:52.305Z,7.40
2023-04-18T13:35:18.971Z,7.60
2023-04-18T13:37:46.205Z,7.80
2023-04-18T13:40:12.995Z,7.60
2023-04-18T13:42:39.557Z,6.97
2023-04-18T13:45:06.462Z,7.65
2023-04-18T13:47:33.033Z,7.28
2023-04-18T13:49:59.815Z,8.50
2023-04-18T13:52:26.417Z,7.18
2023-04-18T13:54:53.148Z,7.82
2023-04-18T13:57:19.822Z,8.80
2023-04-18T13:59:46.767Z,6.88
2023-04-18T14:02:13.378Z,7.57
2023-04-18T14:04:39.997Z,7.88
2023-04-18T14:07:07.870Z,6.55
2023-04-18T14:09:34.448Z,7.80
2023-04-18T14:12:01.993Z,6.65
2023-04-18T14:14:28.696Z,6.88
2023-04-18T14:16:55.325Z,6.20
2023-04-18T14:19:21.816Z,6.57
2023-04-18T14:21:48.507Z,6.22
2023-04-18T14:24:15.204Z,6.78
2023-04-18T14:26:41.974Z,7.00
2023-04-18T14:29:11.697Z,6.53
2023-04-18T14:31:38.465Z,7.60
2023-04-18T14:34:05.581Z,6.10
2023-04-18T14:36:32.666Z,6.47
2023-04-18T14:38:59.309Z,6.55
2023-04-18T14:41:26.167Z,6.97
2023-04-18T14:43:52.712Z,6.30
2023-04-18T14:46:21.156Z,7.22
2023-04-18T14:48:47.736Z,6.22
2023-04-18T14:51:17.505Z,6.43
2023-04-18T14:53:44.736Z,7.45
2023-04-18T14:56:11.249Z,6.35
2023-04-18T14:58:37.777Z,6.22
2023-04-18T15:01:07.149Z,6.70
2023-04-18T15:03:34.014Z,7.00
2023-04-18T15:06:00.746Z,6.95
2023-04-18T15:08:27.498Z,7.35
2023-04-18T15:10:54.130Z,7.50
2023-04-18T15:13:20.762Z,6.82
2023-04-18T15:15:54.613Z,6.20
2023-04-18T15:18:21.300Z,6.70
2023-04-18T15:20:51.126Z,6.90
2023-04-18T15:23:17.714Z,6.45
2023-04-18T15:25:45.280Z,6.43
2023-04-18T15:28:15.982Z,7.35
2023-04-18T15:30:42.564Z,6.50
2023-04-18T15:33:09.334Z,6.70
2023-04-18T15:35:36.119Z,7.68
2023-04-18T15:38:03.002Z,7.50
2023-04-18T15:40:29.764Z,6.47
2023-04-18T15:42:57.789Z,7.00
2023-04-18T15:45:24.438Z,7.55
2023-04-18T15:47:51.504Z,7.10
2023-04-18T15:50:18.198Z,7.43
2023-04-18T15:52:44.644Z,8.77
2023-04-18T15:55:13.193Z,7.43
2023-04-18T15:57:40.720Z,6.68
2023-04-18T16:00:18.606Z,6.90
2023-04-18T16:02:46.018Z,7.38
2023-04-18T16:05:16.037Z,8.00
2023-04-18T16:07:43.083Z,7.68
2023-04-18T16:10:11.115Z,7.93
2023-04-18T16:12:38.737Z,8.43
2023-04-18T16:15:09.786Z,7.43
2023-04-18T16:17:37.134Z,6.93
2023-04-18T16:20:05.956Z,7.82
2023-04-18T16:22:32.508Z,7.85
2023-04-18T16:25:01.912Z,8.35
2023-04-18T16:27:28.585Z,8.98
2023-04-18T16:29:55.120Z,8.00
2023-04-18T16:32:21.847Z,9.55
2023-04-18T16:34:48.591Z,7.80
2023-04-18T16:37:15.291Z,7.85
2023-04-18T16:39:41.806Z,8.48
2023-04-18T16:42:08.351Z,8.10
2023-04-18T16:44:34.867Z,8.38
2023-04-18T16:47:01.517Z,8.43
2023-04-18T16:49:30.979Z,8.13
2023-04-18T16:51:57.510Z,9.48
2023-04-18T16:54:24.039Z,8.23
2023-04-18T16:56:53.539Z,7.80
2023-04-18T16:59:20.242Z,7.90
2023-04-18T17:01:46.948Z,7.28
2023-04-18T17:04:15.327Z,8.77
2023-04-18T17:06:44.841Z,8.57
2023-04-18T17:09:13.541Z,8.77
2023-04-18T17:11:41.130Z,9.00
2023-04-18T17:14:11.381Z,8.10
2023-04-18T17:16:38.948Z,7.70
2023-04-18T17:19:05.775Z,8.45
2023-04-18T17:21:33.073Z,8.27
2023-04-18T17:24:03.485Z,8.75
2023-04-18T17:26:30.976Z,9.25
2023-04-18T17:28:57.550Z,8.43
2023-04-18T17:31:24.148Z,7.80
2023-04-18T17:33:50.902Z,7.68
2023-04-18T17:36:17.654Z,7.75
2023-04-18T17:38:50.316Z,7.55
2023-04-18T17:41:18.249Z,6.93
2023-04-18T17:43:45.745Z,7.55
2023-04-18T17:46:13.068Z,8.25
2023-04-18T17:48:39.685Z,7.45
2023-04-18T17:51:06.185Z,9.00
2023-04-18T17:53:32.981Z,8.00
2023-04-18T17:55:59.774Z,7.28
2023-04-18T17:58:26.734Z,9.82
2023-04-18T18:00:53.521Z,8.40
2023-04-18T18:03:20.579Z,8.18
2023-04-18T18:05:49.001Z,9.30
2023-04-18T18:08:15.944Z,7.90
2023-04-18T18:10:42.957Z,8.80
2023-04-18T18:13:09.634Z,8.02
2023-04-18T18:15:36.298Z,7.93
2023-04-18T18:18:02.985Z,8.55
2023-04-18T18:20:30.756Z,8.10
2023-04-18T18:22:59.746Z,8.05
2023-04-18T18:25:26.992Z,7.90
2023-04-18T18:27:54.514Z,8.07
2023-04-18T18:30:24.022Z,8.00
2023-04-18T18:32:50.700Z,8.52
2023-04-18T18:35:17.408Z,10.32
2023-04-18T18:37:44.041Z,8.35
2023-04-18T18:40:10.998Z,9.32
2023-04-18T18:42:37.707Z,8.48
2023-04-18T18:45:04.855Z,8.05
2023-04-18T18:47:31.702Z,10.68
2023-04-18T18:49:58.258Z,10.02
2023-04-18T18:52:25.172Z,9.85
2023-04-18T18:54:52.788Z,9.80
2023-04-18T18:57:19.348Z,9.90
2023-04-18T18:59:46.040Z,10.52
2023-04-18T19:02:12.750Z,10.40
2023-04-18T19:04:39.507Z,11.18
2023-04-18T19:07:06.146Z,11.80
2023-04-18T19:09:36.949Z,10.00
2023-04-18T19:12:04.822Z,10.82
2023-04-18T19:14:31.482Z,13.65
2023-04-18T19:16:58.077Z,11.63
2023-04-18T19:19:25.012Z,13.45
2023-04-18T19:21:51.825Z,12.05
2023-04-18T19:24:18.738Z,13.50
2023-04-18T19:26:45.490Z,12.02
2023-04-18T19:29:32.618Z,14.35
2023-04-18T19:32:03.746Z,15.35
2023-04-18T19:34:37.069Z,14.70
2023-04-18T19:37:04.707Z,16.17
2023-04-18T19:39:32.050Z,19.05
2023-04-18T19:41:58.872Z,13.38
2023-04-18T19:44:26.572Z,13.43
2023-04-18T19:46:54.132Z,10.95
2023-04-18T19:49:22.552Z,11.77
2023-04-18T19:51:51.775Z,11.90
2023-04-18T19:54:21.826Z,12.73
2023-04-18T19:56:50.222Z,12.80
2023-04-18T19:59:20.971Z,11.70
2023-04-18T20:01:47.916Z,12.98
2023-04-18T20:04:16.604Z,12.77
2023-04-18T20:06:43.665Z,11.98
2023-04-18T20:09:15.554Z,12.02
2023-04-18T20:11:43.161Z,13.80
2023-04-18T20:14:10.388Z,13.23
2023-04-18T20:16:37.175Z,15.60
2023-04-18T20:19:05.702Z,13.15
2023-04-18T20:21:32.630Z,12.57
2023-04-18T20:23:59.326Z,12.88
2023-04-18T20:26:26.016Z,14.60
2023-04-18T20:28:52.662Z,15.68
2023-04-18T20:31:19.597Z,12.90
2023-04-18T20:33:46.328Z,13.70
2023-04-18T20:36:14.098Z,14.23
2023-04-18T20:38:40.822Z,15.45
2023-04-18T20:41:10.705Z,14.38
2023-04-18T20:43:37.442Z,13.32
2023-04-18T20:46:04.160Z,14.55
2023-04-18T20:48:30.855Z,13.15
2023-04-18T20:50:57.437Z,13.50
2023-04-18T20:53:28.847Z,14.85
2023-04-18T20:55:55.451Z,13.75
2023-04-18T20:58:22.111Z,15.23
2023-04-18T21:00:48.954Z,13.35
2023-04-18T21:03:16.425Z,13.55
2023-04-18T21:05:44.056Z,15.25
2023-04-18T21:08:13.648Z,14.55
2023-04-18T21:10:40.417Z,12.82
2023-04-18T21:13:07.083Z,15.43
2023-04-18T21:15:35.227Z,13.65
2023-04-18T21:18:02.053Z,14.40
2023-04-18T21:20:28.671Z,14.60
2023-04-18T21:22:55.185Z,14.27
2023-04-18T21:25:21.749Z,14.38
2023-04-18T21:27:50.394Z,14.30
2023-04-18T21:30:16.964Z,15.05
2023-04-18T21:32:43.502Z,15.98
2023-04-18T21:35:10.240Z,13.90
2023-04-18T21:37:37.539Z,16.73
2023-04-18T21:40:04.702Z,15.82
2023-04-18T21:42:31.176Z,15.82
2023-04-18T21:44:57.770Z,16.70
2023-04-18T21:47:25.879Z,14.32
2023-04-18T21:49:52.540Z,16.52
2023-04-18T21:52:19.086Z,15.90
2023-04-18T21:54:45.777Z,14.43
2023-04-18T21:57:12.277Z,14.13
2023-04-18T21:59:38.866Z,15.65
2023-04-18T22:02:05.489Z,16.75
2023-04-18T22:04:32.096Z,14.20
2023-04-18T22:06:58.923Z,16.30
2023-04-18T22:09:25.524Z,14.55
2023-04-18T22:11:56.490Z,14.15
2023-04-18T22:14:24.653Z,13.95
2023-04-18T22:16:51.223Z,13.90
2023-04-18T22:19:19.161Z,14.68
2023-04-18T22:21:45.737Z,14.05
2023-04-18T22:24:12.329Z,14.20
2023-04-18T22:26:39.820Z,14.70
2023-04-18T22:29:06.376Z,14.75
2023-04-18T22:31:32.821Z,14.23
2023-04-18T22:33:59.298Z,13.77
2023-04-18T22:36:27.538Z,13.10
2023-04-18T22:38:54.076Z,13.02
2023-04-18T22:41:20.555Z,13.18
2023-04-18T22:43:47.012Z,13.32
2023-04-18T22:46:13.537Z,13.55
2023-04-18T22:48:40.146Z,12.95
2023-04-18T22:51:06.726Z,12.95
2023-04-18T22:53:33.351Z,13.68
2023-04-18T22:55:59.863Z,13.82
2023-04-18T22:58:26.382Z,13.60
2023-04-18T23:00:52.892Z,13.82
2023-04-18T23:03:19.559Z,13.57
2023-04-18T23:05:46.206Z,14.38
2023-04-18T23:08:12.892Z,12.65
2023-04-18T23:10:39.418Z,13.60
2023-04-18T23:13:06.054Z,15.43
2023-04-18T23:15:32.674Z,14.13
2023-04-18T23:17:59.401Z,13.60
2023-04-18T23:20:26.001Z,13.68
2023-04-18T23:22:52.830Z,15.43
2023-04-18T23:25:19.780Z,14.70
2023-04-18T23:27:46.927Z,14.98
2023-04-18T23:30:13.632Z,13.73
2023-04-18T23:32:40.153Z,15.30
2023-04-18T23:35:06.905Z,14.57
2023-04-18T23:37:33.539Z,14.50
2023-04-18T23:40:00.253Z,14.43
2023-04-18T23:42:27.235Z,14.02
2023-04-18T23:44:54.502Z,15.20
2023-04-18T23:47:21.836Z,16.08
2023-04-18T23:49:48.353Z,14.25
2023-04-18T23:52:14.839Z,14.55
2023-04-18T23:54:41.465Z,17.33
2023-04-18T23:57:07.981Z,15.73
2023-04-18T23:59:34.495Z,15.85
